sensor_id;sensor_type;location;lat;lon;timestamp;temperature;humidity
52321;DHT22;38261;54.090;13.382;2024-02-26T00:00:50;4.10;99.90
52321;DHT22;38261;54.090;13.382;2024-02-26T00:02:12;4.10;99.90
52321;DHT22;38261;54.090;13.382;2024-02-26T00:03:34;4.10;99.90
52321;DHT22;38261;54.090;13.382;2024-02-26T00:04:57;4.10;99.90
52321;DHT22;38261;54.090;13.382;2024-02-26T00:06:20;4.10;99.90
52321;DHT22;38261;54.090;13.382;2024-02-26T00:07:42;4.10;99.90
52321;DHT22;38261;54.090;13.382;2024-02-26T00:09:04;4.00;99.90
52321;DHT22;38261;54.090;13.382;2024-02-26T00:10:28;4.00;99.90
52321;DHT22;38261;54.090;13.382;2024-02-26T00:11:50;4.00;99.90
52321;DHT22;38261;54.090;13.382;2024-02-26T00:13:12;4.00;99.90
52321;DHT22;38261;54.090;13.382;2024-02-26T00:14:34;3.90;99.90
52321;DHT22;38261;54.090;13.382;2024-02-26T00:15:57;4.00;99.90
52321;DHT22;38261;54.090;13.382;2024-02-26T00:17:19;3.90;99.90
52321;DHT22;38261;54.090;13.382;2024-02-26T00:18:41;3.90;99.90
52321;DHT22;38261;54.090;13.382;2024-02-26T00:20:04;3.90;99.90
52321;DHT22;38261;54.090;13.382;2024-02-26T00:21:30;3.90;99.90
52321;DHT22;38261;54.090;13.382;2024-02-26T00:22:52;3.90;99.90
52321;DHT22;38261;54.090;13.382;2024-02-26T00:24:14;3.90;99.90
52321;DHT22;38261;54.090;13.382;2024-02-26T00:25:36;3.80;99.90
52321;DHT22;38261;54.090;13.382;2024-02-26T00:26:59;3.80;99.90
52321;DHT22;38261;54.090;13.382;2024-02-26T00:28:22;3.80;99.90
52321;DHT22;38261;54.090;13.382;2024-02-26T00:29:44;3.80;99.90
52321;DHT22;38261;54.090;13.382;2024-02-26T00:31:06;3.80;99.90
52321;DHT22;38261;54.090;13.382;2024-02-26T00:32:28;3.80;99.90
52321;DHT22;38261;54.090;13.382;2024-02-26T00:33:50;3.70;99.90
52321;DHT22;38261;54.090;13.382;2024-02-26T00:35:13;3.70;99.90
52321;DHT22;38261;54.090;13.382;2024-02-26T00:36:36;3.70;99.90
52321;DHT22;38261;54.090;13.382;2024-02-26T00:37:58;3.70;99.90
52321;DHT22;38261;54.090;13.382;2024-02-26T00:39:20;3.60;99.90
52321;DHT22;38261;54.090;13.382;2024-02-26T00:40:42;3.60;99.90
52321;DHT22;38261;54.090;13.382;2024-02-26T00:42:05;3.60;99.90
52321;DHT22;38261;54.090;13.382;2024-02-26T00:43:27;3.60;99.90
52321;DHT22;38261;54.090;13.382;2024-02-26T00:44:49;3.60;99.90
52321;DHT22;38261;54.090;13.382;2024-02-26T00:46:12;3.50;99.90
52321;DHT22;38261;54.090;13.382;2024-02-26T00:47:34;3.50;99.90
52321;DHT22;38261;54.090;13.382;2024-02-26T00:48:56;3.50;99.90
52321;DHT22;38261;54.090;13.382;2024-02-26T00:50:18;3.50;99.90
52321;DHT22;38261;54.090;13.382;2024-02-26T00:51:40;3.50;99.90
52321;DHT22;38261;54.090;13.382;2024-02-26T00:53:03;3.50;99.90
52321;DHT22;38261;54.090;13.382;2024-02-26T00:54:25;3.50;99.90
52321;DHT22;38261;54.090;13.382;2024-02-26T00:55:47;3.50;99.90
52321;DHT22;38261;54.090;13.382;2024-02-26T00:57:10;3.50;99.90
52321;DHT22;38261;54.090;13.382;2024-02-26T00:58:32;3.50;99.90
52321;DHT22;38261;54.090;13.382;2024-02-26T00:59:54;3.50;99.90
52321;DHT22;38261;54.090;13.382;2024-02-26T01:01:18;3.50;99.90
52321;DHT22;38261;54.090;13.382;2024-02-26T01:02:40;3.50;99.90
52321;DHT22;38261;54.090;13.382;2024-02-26T01:04:03;3.50;99.90
52321;DHT22;38261;54.090;13.382;2024-02-26T01:05:26;3.50;99.90
52321;DHT22;38261;54.090;13.382;2024-02-26T01:06:48;3.50;99.90
52321;DHT22;38261;54.090;13.382;2024-02-26T01:08:11;3.50;99.90
52321;DHT22;38261;54.090;13.382;2024-02-26T01:09:33;3.50;99.90
52321;DHT22;38261;54.090;13.382;2024-02-26T01:10:55;3.50;99.90
52321;DHT22;38261;54.090;13.382;2024-02-26T01:12:17;3.50;99.90
52321;DHT22;38261;54.090;13.382;2024-02-26T01:13:39;3.50;99.90
52321;DHT22;38261;54.090;13.382;2024-02-26T01:15:02;3.50;99.90
52321;DHT22;38261;54.090;13.382;2024-02-26T01:16:25;3.50;99.90
52321;DHT22;38261;54.090;13.382;2024-02-26T01:17:47;3.50;99.90
52321;DHT22;38261;54.090;13.382;2024-02-26T01:19:10;3.40;99.90
52321;DHT22;38261;54.090;13.382;2024-02-26T01:20:32;3.50;99.90
52321;DHT22;38261;54.090;13.382;2024-02-26T01:21:54;3.40;99.90
52321;DHT22;38261;54.090;13.382;2024-02-26T01:23:16;3.40;99.90
52321;DHT22;38261;54.090;13.382;2024-02-26T01:24:39;3.40;99.90
52321;DHT22;38261;54.090;13.382;2024-02-26T01:26:01;3.40;99.90
52321;DHT22;38261;54.090;13.382;2024-02-26T01:27:24;3.40;99.90
52321;DHT22;38261;54.090;13.382;2024-02-26T01:28:49;3.40;99.90
52321;DHT22;38261;54.090;13.382;2024-02-26T01:30:11;3.30;99.90
52321;DHT22;38261;54.090;13.382;2024-02-26T01:31:33;3.30;99.90
52321;DHT22;38261;54.090;13.382;2024-02-26T01:32:58;3.30;99.90
52321;DHT22;38261;54.090;13.382;2024-02-26T01:34:20;3.30;99.90
52321;DHT22;38261;54.090;13.382;2024-02-26T01:35:43;3.30;99.90
52321;DHT22;38261;54.090;13.382;2024-02-26T01:37:05;3.20;99.90
52321;DHT22;38261;54.090;13.382;2024-02-26T01:38:27;3.30;99.90
52321;DHT22;38261;54.090;13.382;2024-02-26T01:39:50;3.20;99.90
52321;DHT22;38261;54.090;13.382;2024-02-26T01:41:13;3.20;99.90
52321;DHT22;38261;54.090;13.382;2024-02-26T01:42:38;3.10;99.90
52321;DHT22;38261;54.090;13.382;2024-02-26T01:44:00;3.10;99.90
52321;DHT22;38261;54.090;13.382;2024-02-26T01:45:22;3.10;99.90
52321;DHT22;38261;54.090;13.382;2024-02-26T01:46:48;3.10;99.90
52321;DHT22;38261;54.090;13.382;2024-02-26T01:48:10;3.10;99.90
52321;DHT22;38261;54.090;13.382;2024-02-26T01:49:32;3.00;99.90
52321;DHT22;38261;54.090;13.382;2024-02-26T01:50:55;3.00;99.90
52321;DHT22;38261;54.090;13.382;2024-02-26T01:52:17;3.00;99.90
52321;DHT22;38261;54.090;13.382;2024-02-26T01:53:40;3.00;99.90
52321;DHT22;38261;54.090;13.382;2024-02-26T01:55:03;2.90;99.90
52321;DHT22;38261;54.090;13.382;2024-02-26T01:56:26;3.00;99.90
52321;DHT22;38261;54.090;13.382;2024-02-26T01:57:52;2.90;99.90
52321;DHT22;38261;54.090;13.382;2024-02-26T01:59:16;2.90;99.90
52321;DHT22;38261;54.090;13.382;2024-02-26T02:00:38;2.90;99.90
52321;DHT22;38261;54.090;13.382;2024-02-26T02:02:03;2.80;99.90
52321;DHT22;38261;54.090;13.382;2024-02-26T02:04:39;2.80;99.90
52321;DHT22;38261;54.090;13.382;2024-02-26T02:06:03;2.80;99.90
52321;DHT22;38261;54.090;13.382;2024-02-26T02:07:26;2.80;99.90
52321;DHT22;38261;54.090;13.382;2024-02-26T02:08:48;2.80;99.90
52321;DHT22;38261;54.090;13.382;2024-02-26T02:10:10;2.80;99.90
52321;DHT22;38261;54.090;13.382;2024-02-26T02:11:33;2.70;99.90
52321;DHT22;38261;54.090;13.382;2024-02-26T02:12:56;2.70;99.90
52321;DHT22;38261;54.090;13.382;2024-02-26T02:14:18;2.70;99.90
52321;DHT22;38261;54.090;13.382;2024-02-26T02:15:40;2.70;99.90
52321;DHT22;38261;54.090;13.382;2024-02-26T02:17:02;2.60;99.90
52321;DHT22;38261;54.090;13.382;2024-02-26T02:18:24;2.60;99.90
52321;DHT22;38261;54.090;13.382;2024-02-26T02:19:47;2.60;99.90
52321;DHT22;38261;54.090;13.382;2024-02-26T02:21:09;2.60;99.90
52321;DHT22;38261;54.090;13.382;2024-02-26T02:22:31;2.60;99.90
52321;DHT22;38261;54.090;13.382;2024-02-26T02:23:54;2.50;99.90
52321;DHT22;38261;54.090;13.382;2024-02-26T02:25:16;2.50;99.90
52321;DHT22;38261;54.090;13.382;2024-02-26T02:26:38;2.50;99.90
52321;DHT22;38261;54.090;13.382;2024-02-26T02:28:01;2.40;99.90
52321;DHT22;38261;54.090;13.382;2024-02-26T02:29:23;2.40;99.90
52321;DHT22;38261;54.090;13.382;2024-02-26T02:30:45;2.40;99.90
52321;DHT22;38261;54.090;13.382;2024-02-26T02:32:08;2.40;99.90
52321;DHT22;38261;54.090;13.382;2024-02-26T02:33:30;2.40;99.90
52321;DHT22;38261;54.090;13.382;2024-02-26T02:34:53;2.40;99.90
52321;DHT22;38261;54.090;13.382;2024-02-26T02:36:15;2.30;99.90
52321;DHT22;38261;54.090;13.382;2024-02-26T02:37:37;2.30;99.90
52321;DHT22;38261;54.090;13.382;2024-02-26T02:39:00;2.30;99.90
52321;DHT22;38261;54.090;13.382;2024-02-26T02:40:22;2.20;99.90
52321;DHT22;38261;54.090;13.382;2024-02-26T02:41:44;2.30;99.90
52321;DHT22;38261;54.090;13.382;2024-02-26T02:43:06;2.20;99.90
52321;DHT22;38261;54.090;13.382;2024-02-26T02:44:28;2.20;99.90
52321;DHT22;38261;54.090;13.382;2024-02-26T02:45:50;2.20;99.90
52321;DHT22;38261;54.090;13.382;2024-02-26T02:47:13;2.20;99.90
52321;DHT22;38261;54.090;13.382;2024-02-26T02:48:35;2.20;99.90
52321;DHT22;38261;54.090;13.382;2024-02-26T02:49:57;2.20;99.90
52321;DHT22;38261;54.090;13.382;2024-02-26T02:51:20;2.20;99.90
52321;DHT22;38261;54.090;13.382;2024-02-26T02:52:42;2.20;99.90
52321;DHT22;38261;54.090;13.382;2024-02-26T02:54:04;2.20;99.90
52321;DHT22;38261;54.090;13.382;2024-02-26T02:55:27;2.20;99.90
52321;DHT22;38261;54.090;13.382;2024-02-26T02:56:49;2.20;99.90
52321;DHT22;38261;54.090;13.382;2024-02-26T02:58:11;2.10;99.90
52321;DHT22;38261;54.090;13.382;2024-02-26T02:59:33;2.10;99.90
52321;DHT22;38261;54.090;13.382;2024-02-26T03:00:55;2.10;99.90
52321;DHT22;38261;54.090;13.382;2024-02-26T03:02:18;2.20;99.90
52321;DHT22;38261;54.090;13.382;2024-02-26T03:03:40;2.10;99.90
52321;DHT22;38261;54.090;13.382;2024-02-26T03:05:03;2.10;99.90
52321;DHT22;38261;54.090;13.382;2024-02-26T03:06:26;2.10;99.90
52321;DHT22;38261;54.090;13.382;2024-02-26T03:07:49;2.10;99.90
52321;DHT22;38261;54.090;13.382;2024-02-26T03:09:11;2.10;99.90
52321;DHT22;38261;54.090;13.382;2024-02-26T03:10:34;2.10;99.90
52321;DHT22;38261;54.090;13.382;2024-02-26T03:11:56;2.10;99.90
52321;DHT22;38261;54.090;13.382;2024-02-26T03:13:18;2.10;99.90
52321;DHT22;38261;54.090;13.382;2024-02-26T03:14:40;2.10;99.90
52321;DHT22;38261;54.090;13.382;2024-02-26T03:16:06;2.10;99.90
52321;DHT22;38261;54.090;13.382;2024-02-26T03:17:29;2.10;99.90
52321;DHT22;38261;54.090;13.382;2024-02-26T03:18:51;2.10;99.90
52321;DHT22;38261;54.090;13.382;2024-02-26T03:20:13;2.00;99.90
52321;DHT22;38261;54.090;13.382;2024-02-26T03:21:36;2.00;99.90
52321;DHT22;38261;54.090;13.382;2024-02-26T03:22:58;2.00;99.90
52321;DHT22;38261;54.090;13.382;2024-02-26T03:24:21;2.00;99.90
52321;DHT22;38261;54.090;13.382;2024-02-26T03:25:44;2.00;99.90
52321;DHT22;38261;54.090;13.382;2024-02-26T03:27:08;2.00;99.90
52321;DHT22;38261;54.090;13.382;2024-02-26T03:28:31;2.00;99.90
52321;DHT22;38261;54.090;13.382;2024-02-26T03:29:57;1.90;99.90
52321;DHT22;38261;54.090;13.382;2024-02-26T03:31:19;1.90;99.90
52321;DHT22;38261;54.090;13.382;2024-02-26T03:32:42;1.90;99.90
52321;DHT22;38261;54.090;13.382;2024-02-26T03:34:05;1.90;99.90
52321;DHT22;38261;54.090;13.382;2024-02-26T03:35:27;1.90;99.90
52321;DHT22;38261;54.090;13.382;2024-02-26T03:36:49;1.90;99.90
52321;DHT22;38261;54.090;13.382;2024-02-26T03:38:13;1.90;99.90
52321;DHT22;38261;54.090;13.382;2024-02-26T03:39:35;1.80;99.90
52321;DHT22;38261;54.090;13.382;2024-02-26T03:40:57;1.90;99.90
52321;DHT22;38261;54.090;13.382;2024-02-26T03:42:19;1.80;99.90
52321;DHT22;38261;54.090;13.382;2024-02-26T03:43:41;1.80;99.90
52321;DHT22;38261;54.090;13.382;2024-02-26T03:45:04;1.80;99.90
52321;DHT22;38261;54.090;13.382;2024-02-26T03:46:26;1.80;99.90
52321;DHT22;38261;54.090;13.382;2024-02-26T03:47:48;1.80;99.90
52321;DHT22;38261;54.090;13.382;2024-02-26T03:49:11;1.80;99.90
52321;DHT22;38261;54.090;13.382;2024-02-26T03:50:33;1.80;99.90
52321;DHT22;38261;54.090;13.382;2024-02-26T03:51:56;1.80;99.90
52321;DHT22;38261;54.090;13.382;2024-02-26T03:53:18;1.70;99.90
52321;DHT22;38261;54.090;13.382;2024-02-26T03:54:40;1.70;99.90
52321;DHT22;38261;54.090;13.382;2024-02-26T03:56:04;1.70;99.90
52321;DHT22;38261;54.090;13.382;2024-02-26T03:57:26;1.70;99.90
52321;DHT22;38261;54.090;13.382;2024-02-26T03:58:48;1.70;99.90
52321;DHT22;38261;54.090;13.382;2024-02-26T04:00:11;1.70;99.90
52321;DHT22;38261;54.090;13.382;2024-02-26T04:01:33;1.70;99.90
52321;DHT22;38261;54.090;13.382;2024-02-26T04:02:55;1.70;99.90
52321;DHT22;38261;54.090;13.382;2024-02-26T04:04:18;1.60;99.90
52321;DHT22;38261;54.090;13.382;2024-02-26T04:05:40;1.60;99.90
52321;DHT22;38261;54.090;13.382;2024-02-26T04:07:02;1.60;99.90
52321;DHT22;38261;54.090;13.382;2024-02-26T04:08:25;1.50;99.90
52321;DHT22;38261;54.090;13.382;2024-02-26T04:09:47;1.50;99.90
52321;DHT22;38261;54.090;13.382;2024-02-26T04:11:09;1.50;99.90
52321;DHT22;38261;54.090;13.382;2024-02-26T04:12:31;1.50;99.90
52321;DHT22;38261;54.090;13.382;2024-02-26T04:13:54;1.60;99.90
52321;DHT22;38261;54.090;13.382;2024-02-26T04:15:16;1.50;99.90
52321;DHT22;38261;54.090;13.382;2024-02-26T04:16:39;1.50;99.90
52321;DHT22;38261;54.090;13.382;2024-02-26T04:18:01;1.50;99.90
52321;DHT22;38261;54.090;13.382;2024-02-26T04:19:24;1.50;99.90
52321;DHT22;38261;54.090;13.382;2024-02-26T04:20:47;1.50;99.90
52321;DHT22;38261;54.090;13.382;2024-02-26T04:22:10;1.50;99.90
52321;DHT22;38261;54.090;13.382;2024-02-26T04:23:32;1.50;99.90
52321;DHT22;38261;54.090;13.382;2024-02-26T04:24:54;1.50;99.90
52321;DHT22;38261;54.090;13.382;2024-02-26T04:26:16;1.50;99.90
52321;DHT22;38261;54.090;13.382;2024-02-26T04:27:39;1.50;99.90
52321;DHT22;38261;54.090;13.382;2024-02-26T04:29:01;1.50;99.90
52321;DHT22;38261;54.090;13.382;2024-02-26T04:30:23;1.50;99.90
52321;DHT22;38261;54.090;13.382;2024-02-26T04:31:46;1.50;99.90
52321;DHT22;38261;54.090;13.382;2024-02-26T04:33:08;1.50;99.90
52321;DHT22;38261;54.090;13.382;2024-02-26T04:34:30;1.50;99.90
52321;DHT22;38261;54.090;13.382;2024-02-26T04:35:53;1.50;99.90
52321;DHT22;38261;54.090;13.382;2024-02-26T04:37:15;1.50;99.90
52321;DHT22;38261;54.090;13.382;2024-02-26T04:38:37;1.50;99.90
52321;DHT22;38261;54.090;13.382;2024-02-26T04:40:00;1.40;99.90
52321;DHT22;38261;54.090;13.382;2024-02-26T04:41:23;1.40;99.90
52321;DHT22;38261;54.090;13.382;2024-02-26T04:42:45;1.40;99.90
52321;DHT22;38261;54.090;13.382;2024-02-26T04:44:07;1.40;99.90
52321;DHT22;38261;54.090;13.382;2024-02-26T04:45:29;1.30;99.90
52321;DHT22;38261;54.090;13.382;2024-02-26T04:46:51;1.30;99.90
52321;DHT22;38261;54.090;13.382;2024-02-26T04:48:13;1.30;99.90
52321;DHT22;38261;54.090;13.382;2024-02-26T04:49:35;1.30;99.90
52321;DHT22;38261;54.090;13.382;2024-02-26T04:50:58;1.30;99.90
52321;DHT22;38261;54.090;13.382;2024-02-26T04:52:20;1.30;99.90
52321;DHT22;38261;54.090;13.382;2024-02-26T04:53:42;1.30;99.90
52321;DHT22;38261;54.090;13.382;2024-02-26T04:55:04;1.30;99.90
52321;DHT22;38261;54.090;13.382;2024-02-26T04:56:27;1.30;99.90
52321;DHT22;38261;54.090;13.382;2024-02-26T04:57:49;1.30;99.90
52321;DHT22;38261;54.090;13.382;2024-02-26T04:59:11;1.40;99.90
52321;DHT22;38261;54.090;13.382;2024-02-26T05:00:33;1.30;99.90
52321;DHT22;38261;54.090;13.382;2024-02-26T05:01:55;1.30;99.90
52321;DHT22;38261;54.090;13.382;2024-02-26T05:03:18;1.30;99.90
52321;DHT22;38261;54.090;13.382;2024-02-26T05:04:40;1.30;99.90
52321;DHT22;38261;54.090;13.382;2024-02-26T05:06:02;1.30;99.90
52321;DHT22;38261;54.090;13.382;2024-02-26T05:07:25;1.30;99.90
52321;DHT22;38261;54.090;13.382;2024-02-26T05:08:47;1.30;99.90
52321;DHT22;38261;54.090;13.382;2024-02-26T05:10:09;1.30;99.90
52321;DHT22;38261;54.090;13.382;2024-02-26T05:11:32;1.30;99.90
52321;DHT22;38261;54.090;13.382;2024-02-26T05:12:54;1.30;99.90
52321;DHT22;38261;54.090;13.382;2024-02-26T05:14:16;1.30;99.90
52321;DHT22;38261;54.090;13.382;2024-02-26T05:15:39;1.30;99.90
52321;DHT22;38261;54.090;13.382;2024-02-26T05:17:01;1.30;99.90
52321;DHT22;38261;54.090;13.382;2024-02-26T05:18:23;1.30;99.90
52321;DHT22;38261;54.090;13.382;2024-02-26T05:19:46;1.30;99.90
52321;DHT22;38261;54.090;13.382;2024-02-26T05:21:08;1.20;99.90
52321;DHT22;38261;54.090;13.382;2024-02-26T05:22:30;1.30;99.90
52321;DHT22;38261;54.090;13.382;2024-02-26T05:23:52;1.20;99.90
52321;DHT22;38261;54.090;13.382;2024-02-26T05:25:15;1.30;99.90
52321;DHT22;38261;54.090;13.382;2024-02-26T05:26:37;1.20;99.90
52321;DHT22;38261;54.090;13.382;2024-02-26T05:28:00;1.30;99.90
52321;DHT22;38261;54.090;13.382;2024-02-26T05:29:22;1.30;99.90
52321;DHT22;38261;54.090;13.382;2024-02-26T05:30:44;1.30;99.90
52321;DHT22;38261;54.090;13.382;2024-02-26T05:32:06;1.30;99.90
52321;DHT22;38261;54.090;13.382;2024-02-26T05:33:28;1.30;99.90
52321;DHT22;38261;54.090;13.382;2024-02-26T05:34:51;1.20;99.90
52321;DHT22;38261;54.090;13.382;2024-02-26T05:36:22;1.20;99.90
52321;DHT22;38261;54.090;13.382;2024-02-26T05:37:45;1.20;99.90
52321;DHT22;38261;54.090;13.382;2024-02-26T05:39:07;1.20;99.90
52321;DHT22;38261;54.090;13.382;2024-02-26T05:40:34;1.20;99.90
52321;DHT22;38261;54.090;13.382;2024-02-26T05:41:56;1.20;99.90
52321;DHT22;38261;54.090;13.382;2024-02-26T05:43:19;1.20;99.90
52321;DHT22;38261;54.090;13.382;2024-02-26T05:44:41;1.20;99.90
52321;DHT22;38261;54.090;13.382;2024-02-26T05:46:03;1.20;99.90
52321;DHT22;38261;54.090;13.382;2024-02-26T05:47:25;1.20;99.90
52321;DHT22;38261;54.090;13.382;2024-02-26T05:48:50;1.20;99.90
52321;DHT22;38261;54.090;13.382;2024-02-26T05:50:13;1.20;99.90
52321;DHT22;38261;54.090;13.382;2024-02-26T05:51:37;1.20;99.90
52321;DHT22;38261;54.090;13.382;2024-02-26T05:52:59;1.20;99.90
52321;DHT22;38261;54.090;13.382;2024-02-26T05:54:21;1.20;99.90
52321;DHT22;38261;54.090;13.382;2024-02-26T05:55:43;1.20;99.90
52321;DHT22;38261;54.090;13.382;2024-02-26T05:57:05;1.20;99.90
52321;DHT22;38261;54.090;13.382;2024-02-26T05:58:28;1.20;99.90
52321;DHT22;38261;54.090;13.382;2024-02-26T05:59:50;1.20;99.90
52321;DHT22;38261;54.090;13.382;2024-02-26T06:01:12;1.20;99.90
52321;DHT22;38261;54.090;13.382;2024-02-26T06:02:34;1.20;99.90
52321;DHT22;38261;54.090;13.382;2024-02-26T06:03:56;1.20;99.90
52321;DHT22;38261;54.090;13.382;2024-02-26T06:05:18;1.20;99.90
52321;DHT22;38261;54.090;13.382;2024-02-26T06:06:40;1.20;99.90
52321;DHT22;38261;54.090;13.382;2024-02-26T06:08:05;1.20;99.90
52321;DHT22;38261;54.090;13.382;2024-02-26T06:09:28;1.20;99.90
52321;DHT22;38261;54.090;13.382;2024-02-26T06:10:51;1.20;99.90
52321;DHT22;38261;54.090;13.382;2024-02-26T06:12:13;1.20;99.90
52321;DHT22;38261;54.090;13.382;2024-02-26T06:13:35;1.20;99.90
52321;DHT22;38261;54.090;13.382;2024-02-26T06:14:57;1.20;99.90
52321;DHT22;38261;54.090;13.382;2024-02-26T06:16:23;1.30;99.90
52321;DHT22;38261;54.090;13.382;2024-02-26T06:17:45;1.30;99.90
52321;DHT22;38261;54.090;13.382;2024-02-26T06:19:08;1.30;99.90
52321;DHT22;38261;54.090;13.382;2024-02-26T06:20:34;1.30;99.90
52321;DHT22;38261;54.090;13.382;2024-02-26T06:21:56;1.40;99.90
52321;DHT22;38261;54.090;13.382;2024-02-26T06:23:18;1.40;99.90
52321;DHT22;38261;54.090;13.382;2024-02-26T06:24:40;1.40;99.90
52321;DHT22;38261;54.090;13.382;2024-02-26T06:26:03;1.50;99.90
52321;DHT22;38261;54.090;13.382;2024-02-26T06:27:25;1.50;99.90
52321;DHT22;38261;54.090;13.382;2024-02-26T06:28:47;1.50;99.90
52321;DHT22;38261;54.090;13.382;2024-02-26T06:30:10;1.60;99.90
52321;DHT22;38261;54.090;13.382;2024-02-26T06:31:33;1.60;99.90
52321;DHT22;38261;54.090;13.382;2024-02-26T06:32:55;1.70;99.90
52321;DHT22;38261;54.090;13.382;2024-02-26T06:34:18;1.70;99.90
52321;DHT22;38261;54.090;13.382;2024-02-26T06:35:40;1.80;99.90
52321;DHT22;38261;54.090;13.382;2024-02-26T06:37:02;1.80;99.90
52321;DHT22;38261;54.090;13.382;2024-02-26T06:38:25;1.90;99.90
52321;DHT22;38261;54.090;13.382;2024-02-26T06:39:47;2.00;99.90
52321;DHT22;38261;54.090;13.382;2024-02-26T06:41:09;2.00;99.90
52321;DHT22;38261;54.090;13.382;2024-02-26T06:42:33;2.10;99.90
52321;DHT22;38261;54.090;13.382;2024-02-26T06:43:55;2.10;99.90
52321;DHT22;38261;54.090;13.382;2024-02-26T06:45:18;2.20;99.90
52321;DHT22;38261;54.090;13.382;2024-02-26T06:46:41;2.30;99.90
52321;DHT22;38261;54.090;13.382;2024-02-26T06:48:03;2.40;99.90
52321;DHT22;38261;54.090;13.382;2024-02-26T06:49:27;2.40;99.90
52321;DHT22;38261;54.090;13.382;2024-02-26T06:50:49;2.50;99.90
52321;DHT22;38261;54.090;13.382;2024-02-26T06:52:11;2.50;99.90
52321;DHT22;38261;54.090;13.382;2024-02-26T06:53:34;2.60;99.90
52321;DHT22;38261;54.090;13.382;2024-02-26T06:54:57;2.60;99.90
52321;DHT22;38261;54.090;13.382;2024-02-26T06:56:19;2.70;99.90
52321;DHT22;38261;54.090;13.382;2024-02-26T06:57:41;2.70;99.90
52321;DHT22;38261;54.090;13.382;2024-02-26T06:59:03;2.80;99.90
52321;DHT22;38261;54.090;13.382;2024-02-26T07:00:25;2.80;99.90
52321;DHT22;38261;54.090;13.382;2024-02-26T07:01:47;2.90;99.90
52321;DHT22;38261;54.090;13.382;2024-02-26T07:03:10;2.90;99.90
52321;DHT22;38261;54.090;13.382;2024-02-26T07:04:32;2.90;99.90
52321;DHT22;38261;54.090;13.382;2024-02-26T07:05:56;3.00;99.90
52321;DHT22;38261;54.090;13.382;2024-02-26T07:07:18;3.00;99.90
52321;DHT22;38261;54.090;13.382;2024-02-26T07:08:41;3.00;99.90
52321;DHT22;38261;54.090;13.382;2024-02-26T07:10:03;3.00;99.90
52321;DHT22;38261;54.090;13.382;2024-02-26T07:11:27;3.10;99.90
52321;DHT22;38261;54.090;13.382;2024-02-26T07:12:49;3.10;99.90
52321;DHT22;38261;54.090;13.382;2024-02-26T07:14:12;3.20;99.90
52321;DHT22;38261;54.090;13.382;2024-02-26T07:15:34;3.30;99.90
52321;DHT22;38261;54.090;13.382;2024-02-26T07:16:56;3.40;99.90
52321;DHT22;38261;54.090;13.382;2024-02-26T07:18:20;3.50;99.90
52321;DHT22;38261;54.090;13.382;2024-02-26T07:19:42;3.50;99.90
52321;DHT22;38261;54.090;13.382;2024-02-26T07:21:05;3.60;99.90
52321;DHT22;38261;54.090;13.382;2024-02-26T07:22:27;3.70;99.90
52321;DHT22;38261;54.090;13.382;2024-02-26T07:23:49;3.80;99.90
52321;DHT22;38261;54.090;13.382;2024-02-26T07:25:11;3.80;99.90
52321;DHT22;38261;54.090;13.382;2024-02-26T07:26:35;3.90;99.90
52321;DHT22;38261;54.090;13.382;2024-02-26T07:27:57;3.90;99.90
52321;DHT22;38261;54.090;13.382;2024-02-26T07:29:20;3.90;99.90
52321;DHT22;38261;54.090;13.382;2024-02-26T07:30:42;3.90;99.90
52321;DHT22;38261;54.090;13.382;2024-02-26T07:32:04;4.00;99.90
52321;DHT22;38261;54.090;13.382;2024-02-26T07:33:27;4.00;99.90
52321;DHT22;38261;54.090;13.382;2024-02-26T07:34:49;4.10;99.90
52321;DHT22;38261;54.090;13.382;2024-02-26T07:36:12;4.10;99.90
52321;DHT22;38261;54.090;13.382;2024-02-26T07:37:34;4.20;99.90
52321;DHT22;38261;54.090;13.382;2024-02-26T07:38:56;4.20;99.90
52321;DHT22;38261;54.090;13.382;2024-02-26T07:40:19;4.30;99.90
52321;DHT22;38261;54.090;13.382;2024-02-26T07:41:41;4.30;99.90
52321;DHT22;38261;54.090;13.382;2024-02-26T07:43:08;4.30;99.90
52321;DHT22;38261;54.090;13.382;2024-02-26T07:44:31;4.40;99.90
52321;DHT22;38261;54.090;13.382;2024-02-26T07:45:53;4.50;99.90
52321;DHT22;38261;54.090;13.382;2024-02-26T07:47:16;4.60;99.90
52321;DHT22;38261;54.090;13.382;2024-02-26T07:48:38;4.70;99.90
52321;DHT22;38261;54.090;13.382;2024-02-26T07:50:01;4.80;99.90
52321;DHT22;38261;54.090;13.382;2024-02-26T07:51:24;4.90;99.90
52321;DHT22;38261;54.090;13.382;2024-02-26T07:52:47;5.00;99.90
52321;DHT22;38261;54.090;13.382;2024-02-26T07:54:10;5.10;99.90
52321;DHT22;38261;54.090;13.382;2024-02-26T07:55:32;5.10;99.90
52321;DHT22;38261;54.090;13.382;2024-02-26T07:56:54;5.20;99.90
52321;DHT22;38261;54.090;13.382;2024-02-26T07:58:17;5.30;99.90
52321;DHT22;38261;54.090;13.382;2024-02-26T07:59:40;5.40;99.90
52321;DHT22;38261;54.090;13.382;2024-02-26T08:01:03;5.40;99.90
52321;DHT22;38261;54.090;13.382;2024-02-26T08:02:25;5.50;99.90
52321;DHT22;38261;54.090;13.382;2024-02-26T08:03:48;5.60;99.90
52321;DHT22;38261;54.090;13.382;2024-02-26T08:05:10;5.70;99.90
52321;DHT22;38261;54.090;13.382;2024-02-26T08:06:32;5.70;99.90
52321;DHT22;38261;54.090;13.382;2024-02-26T08:07:59;5.80;99.90
52321;DHT22;38261;54.090;13.382;2024-02-26T08:09:21;5.80;99.90
52321;DHT22;38261;54.090;13.382;2024-02-26T08:10:44;5.90;99.90
52321;DHT22;38261;54.090;13.382;2024-02-26T08:12:06;5.90;99.90
52321;DHT22;38261;54.090;13.382;2024-02-26T08:13:28;6.00;99.90
52321;DHT22;38261;54.090;13.382;2024-02-26T08:14:50;6.00;99.90
52321;DHT22;38261;54.090;13.382;2024-02-26T08:16:13;6.00;99.90
52321;DHT22;38261;54.090;13.382;2024-02-26T08:17:35;6.00;99.90
52321;DHT22;38261;54.090;13.382;2024-02-26T08:18:58;6.00;99.90
52321;DHT22;38261;54.090;13.382;2024-02-26T08:20:20;6.10;99.90
52321;DHT22;38261;54.090;13.382;2024-02-26T08:21:42;6.10;99.90
52321;DHT22;38261;54.090;13.382;2024-02-26T08:23:04;6.20;99.90
52321;DHT22;38261;54.090;13.382;2024-02-26T08:24:26;6.20;99.90
52321;DHT22;38261;54.090;13.382;2024-02-26T08:25:49;6.30;99.90
52321;DHT22;38261;54.090;13.382;2024-02-26T08:27:11;6.30;99.90
52321;DHT22;38261;54.090;13.382;2024-02-26T08:28:33;6.40;99.90
52321;DHT22;38261;54.090;13.382;2024-02-26T08:29:55;6.50;99.90
52321;DHT22;38261;54.090;13.382;2024-02-26T08:31:18;6.50;99.90
52321;DHT22;38261;54.090;13.382;2024-02-26T08:32:40;6.50;99.90
52321;DHT22;38261;54.090;13.382;2024-02-26T08:34:03;6.60;99.90
52321;DHT22;38261;54.090;13.382;2024-02-26T08:35:26;6.60;99.90
52321;DHT22;38261;54.090;13.382;2024-02-26T08:36:48;6.70;99.90
52321;DHT22;38261;54.090;13.382;2024-02-26T08:38:11;6.80;99.90
52321;DHT22;38261;54.090;13.382;2024-02-26T08:39:33;6.80;99.90
52321;DHT22;38261;54.090;13.382;2024-02-26T08:40:55;6.80;99.90
52321;DHT22;38261;54.090;13.382;2024-02-26T08:42:17;6.80;99.90